createdAt,value
2022-09-24T00:01:34.058Z,97182.38
2022-09-24T00:04:06.388Z,97150.53
2022-09-24T00:06:58.947Z,97148.31
2022-09-24T00:09:25.299Z,97128.84
2022-09-24T00:11:53.288Z,97139.78
2022-09-24T00:14:20.118Z,97139.78
2022-09-24T00:16:46.525Z,97123.41
2022-09-24T00:19:14.032Z,97134.78
2022-09-24T00:21:41.698Z,97136.81
2022-09-24T00:24:36.935Z,97129.84
2022-09-24T00:27:05.112Z,97114.84
2022-09-24T00:29:36.168Z,97093.44
2022-09-24T00:32:04.257Z,97104.34
2022-09-24T00:34:31.108Z,97093.19
2022-09-24T00:36:57.570Z,97077.72
2022-09-24T00:39:23.921Z,97072.59
2022-09-24T00:41:50.254Z,97069.66
2022-09-24T00:44:35.417Z,97078.41
2022-09-24T00:47:01.858Z,97068.53
2022-09-24T00:49:28.359Z,97058.72
2022-09-24T00:51:54.705Z,97065.00
2022-09-24T00:54:24.882Z,97043.09
2022-09-24T00:56:53.127Z,97037.34
2022-09-24T00:59:23.825Z,97033.91
2022-09-24T01:01:52.718Z,97026.19
2022-09-24T01:04:22.857Z,97015.69
2022-09-24T01:06:50.606Z,97008.75
2022-09-24T01:09:19.849Z,97012.72
2022-09-24T01:12:06.652Z,97008.59
2022-09-24T01:14:47.127Z,96991.47
2022-09-24T01:17:20.658Z,96993.16
2022-09-24T01:20:13.603Z,96991.34
2022-09-24T01:22:39.856Z,96989.00
2022-09-24T01:25:19.271Z,96995.59
2022-09-24T01:28:21.709Z,96988.09
2022-09-24T01:30:54.808Z,96994.03
2022-09-24T01:33:25.658Z,96990.47
2022-09-24T01:35:56.395Z,96983.22
2022-09-24T01:38:34.682Z,96979.78
2022-09-24T01:41:03.772Z,96968.44
2022-09-24T01:43:32.409Z,96963.16
2022-09-24T01:46:02.214Z,96957.78
2022-09-24T01:48:30.244Z,96956.47
2022-09-24T01:51:14.433Z,96953.00
2022-09-24T01:53:53.823Z,96949.09
2022-09-24T01:57:12.875Z,96948.47
2022-09-24T01:59:55.779Z,96940.41
2022-09-24T02:02:35.256Z,96924.06
2022-09-24T02:05:07.814Z,96921.75
2022-09-24T02:08:02.860Z,96915.84
2022-09-24T02:10:32.469Z,96916.47
2022-09-24T02:13:05.348Z,96916.16
2022-09-24T02:15:34.767Z,96915.69
2022-09-24T02:18:06.881Z,96911.56
2022-09-24T02:20:35.502Z,96920.28
2022-09-24T02:23:04.541Z,96924.38
2022-09-24T02:25:39.032Z,96918.34
2022-09-24T02:28:05.537Z,96910.50
2022-09-24T02:30:40.986Z,96920.31
2022-09-24T02:33:30.804Z,96924.94
2022-09-24T02:35:57.553Z,96924.78
2022-09-24T02:38:24.035Z,96917.56
2022-09-24T02:40:51.274Z,96914.59
2022-09-24T02:43:17.737Z,96906.06
2022-09-24T02:45:44.068Z,96899.09
2022-09-24T02:48:11.026Z,96906.50
2022-09-24T02:50:37.488Z,96901.75
2022-09-24T02:53:03.917Z,96904.88
2022-09-24T02:55:31.026Z,96903.22
2022-09-24T02:57:57.518Z,96899.09
2022-09-24T03:00:23.874Z,96895.84
2022-09-24T03:02:51.153Z,96890.88
2022-09-24T03:05:18.188Z,96884.16
2022-09-24T03:07:45.185Z,96892.22
2022-09-24T03:10:11.761Z,96895.56
2022-09-24T03:12:38.172Z,96888.00
2022-09-24T03:15:05.325Z,96885.19
2022-09-24T03:17:31.699Z,96881.09
2022-09-24T03:19:58.042Z,96883.38
2022-09-24T03:22:24.394Z,96881.91
2022-09-24T03:24:51.069Z,96875.47
2022-09-24T03:27:17.402Z,96877.75
2022-09-24T03:30:02.373Z,96879.38
2022-09-24T03:32:29.895Z,96875.28
2022-09-24T03:34:56.261Z,96866.09
2022-09-24T03:37:22.587Z,96875.28
2022-09-24T03:39:48.940Z,96877.50
2022-09-24T03:42:15.452Z,96866.28
2022-09-24T03:44:41.797Z,96872.19
2022-09-24T03:47:08.166Z,96869.56
2022-09-24T03:49:34.544Z,96865.81
2022-09-24T03:52:00.936Z,96859.38
2022-09-24T03:54:27.318Z,96844.56
2022-09-24T03:56:53.672Z,96852.44
2022-09-24T03:59:20.032Z,96842.25
2022-09-24T04:01:46.398Z,96839.47
2022-09-24T04:04:15.534Z,96847.22
2022-09-24T04:06:41.874Z,96839.97
2022-09-24T04:09:08.362Z,96846.25
2022-09-24T04:11:35.240Z,96841.94
2022-09-24T04:14:02.069Z,96837.69
2022-09-24T04:16:28.718Z,96845.72
2022-09-24T04:18:55.549Z,96832.72
2022-09-24T04:21:21.962Z,96832.72
2022-09-24T04:23:48.342Z,96840.47
2022-09-24T04:26:15.130Z,96845.88
2022-09-24T04:28:41.550Z,96847.69
2022-09-24T04:31:08.051Z,96842.88
2022-09-24T04:33:34.513Z,96849.75
2022-09-24T04:36:01.044Z,96843.78
2022-09-24T04:38:27.396Z,96848.41
2022-09-24T04:40:53.820Z,96856.81
2022-09-24T04:43:20.307Z,96870.44
2022-09-24T04:45:46.959Z,96876.38
2022-09-24T04:48:13.609Z,96867.81
2022-09-24T04:50:45.493Z,96867.44
2022-09-24T04:53:12.799Z,96880.41
2022-09-24T04:55:39.639Z,96892.06
2022-09-24T04:58:06.022Z,96899.94
2022-09-24T05:00:33.337Z,96900.47
2022-09-24T05:03:03.639Z,96899.94
2022-09-24T05:05:32.186Z,96908.97
2022-09-24T05:07:58.793Z,96904.53
2022-09-24T05:10:26.406Z,96907.66
2022-09-24T05:12:52.865Z,96920.34
2022-09-24T05:15:19.932Z,96927.28
2022-09-24T05:17:47.597Z,96922.84
2022-09-24T05:20:16.773Z,96932.19
2022-09-24T05:22:44.913Z,96921.69
2022-09-24T05:25:13.198Z,96920.53
2022-09-24T05:27:51.555Z,96917.13
2022-09-24T05:30:19.346Z,96907.06
2022-09-24T05:32:47.171Z,96909.91
2022-09-24T05:35:13.730Z,96911.50
2022-09-24T05:37:40.492Z,96907.53
2022-09-24T05:40:26.579Z,96899.00
2022-09-24T05:42:59.716Z,96899.66
2022-09-24T05:45:26.063Z,96906.59
2022-09-24T05:47:52.745Z,96899.13
2022-09-24T05:50:19.200Z,96911.16
2022-09-24T05:52:45.578Z,96910.81
2022-09-24T05:55:12.004Z,96913.63
2022-09-24T05:57:38.576Z,96909.38
2022-09-24T06:00:06.926Z,96903.78
2022-09-24T06:02:33.535Z,96895.31
2022-09-24T06:04:59.880Z,96895.81
2022-09-24T06:07:26.238Z,96885.13
2022-09-24T06:09:52.694Z,96877.50
2022-09-24T06:12:19.579Z,96876.13
2022-09-24T06:14:45.916Z,96882.91
2022-09-24T06:17:12.505Z,96893.75
2022-09-24T06:19:39.298Z,96895.91
2022-09-24T06:22:05.659Z,96897.66
2022-09-24T06:24:31.976Z,96923.31
2022-09-24T06:26:58.694Z,96910.19
2022-09-24T06:29:25.130Z,96916.59
2022-09-24T06:31:53.797Z,96935.88
2022-09-24T06:34:20.239Z,96963.03
2022-09-24T06:36:46.686Z,96965.47
2022-09-24T06:39:13.040Z,96987.78
2022-09-24T06:41:39.453Z,97014.13
2022-09-24T06:44:05.798Z,97078.50
2022-09-24T06:46:32.227Z,97135.50
2022-09-24T06:48:58.639Z,97186.72
2022-09-24T06:51:25.019Z,97303.91
2022-09-24T06:53:52.650Z,97361.22
2022-09-24T06:56:19.314Z,97469.16
2022-09-24T06:58:46.515Z,97633.97
2022-09-24T07:01:13.039Z,97792.34
2022-09-24T07:03:40.185Z,97838.06
2022-09-24T07:06:07.085Z,97893.66
2022-09-24T07:08:33.671Z,97916.81
2022-09-24T07:11:00.792Z,97883.16
2022-09-24T07:13:27.262Z,97856.06
2022-09-24T07:15:53.728Z,97884.25
2022-09-24T07:18:20.524Z,97914.63
2022-09-24T07:20:54.259Z,97996.97
2022-09-24T07:23:21.633Z,98071.72
2022-09-24T07:25:48.918Z,98122.72
2022-09-24T07:28:19.587Z,98145.78
2022-09-24T07:30:45.965Z,98188.34
2022-09-24T07:33:12.330Z,98248.00
2022-09-24T07:35:39.302Z,98315.56
2022-09-24T07:38:14.215Z,98416.69
2022-09-24T07:40:40.993Z,98457.59
2022-09-24T07:43:12.280Z,98484.66
2022-09-24T07:45:39.081Z,98499.47
2022-09-24T07:48:05.827Z,98509.16
2022-09-24T07:50:35.279Z,98513.00
2022-09-24T07:53:01.677Z,98517.72
2022-09-24T07:55:28.050Z,98530.81
2022-09-24T07:57:55.661Z,98547.94
2022-09-24T08:00:24.258Z,98541.63
2022-09-24T08:02:52.068Z,98551.94
2022-09-24T08:05:18.517Z,98574.22
2022-09-24T08:07:55.844Z,98586.56
2022-09-24T08:10:23.223Z,98598.19
2022-09-24T08:12:49.989Z,98574.50
2022-09-24T08:15:16.639Z,98589.03
2022-09-24T08:17:43.032Z,98606.50
2022-09-24T08:20:11.501Z,98620.81
2022-09-24T08:22:38.165Z,98593.13
2022-09-24T08:25:06.081Z,98611.59
2022-09-24T08:27:33.004Z,98599.59
2022-09-24T08:30:00.632Z,98586.78
2022-09-24T08:32:29.308Z,98594.28
2022-09-24T08:34:55.683Z,98578.59
2022-09-24T08:37:22.298Z,98577.94
2022-09-24T08:39:48.657Z,98578.59
2022-09-24T08:42:36.576Z,98585.09
2022-09-24T08:45:23.681Z,98555.25
2022-09-24T08:48:04.149Z,98557.09
2022-09-24T08:50:34.928Z,98561.41
2022-09-24T08:53:31.567Z,98556.41
2022-09-24T08:56:01.518Z,98575.69
2022-09-24T08:58:46.487Z,98593.41
2022-09-24T09:01:17.758Z,98599.06
2022-09-24T09:04:11.965Z,98603.31
2022-09-24T09:07:04.713Z,98632.78
2022-09-24T09:09:41.353Z,98636.91
2022-09-24T09:12:15.285Z,98674.28
2022-09-24T09:14:49.999Z,98669.38
2022-09-24T09:17:42.786Z,98679.81
2022-09-24T09:20:52.541Z,98678.09
2022-09-24T09:23:22.038Z,98683.47
2022-09-24T09:25:58.046Z,98696.72
2022-09-24T09:28:26.669Z,98691.75
2022-09-24T09:31:19.143Z,98688.84
2022-09-24T09:33:48.440Z,98702.06
2022-09-24T09:36:33.830Z,98683.00
2022-09-24T09:39:18.398Z,98700.38
2022-09-24T09:41:55.356Z,98703.63
2022-09-24T09:44:30.634Z,98689.34
2022-09-24T09:47:12.926Z,98696.13
2022-09-24T09:49:40.295Z,98696.25
2022-09-24T09:52:20.950Z,98698.16
2022-09-24T09:54:48.565Z,98689.78
2022-09-24T09:57:20.669Z,98689.34
2022-09-24T09:59:52.481Z,98692.31
2022-09-24T10:02:31.472Z,98696.03
2022-09-24T10:05:01.233Z,98691.28
2022-09-24T10:07:28.401Z,98688.78
2022-09-24T10:10:18.429Z,98689.97
2022-09-24T10:12:44.825Z,98685.91
2022-09-24T10:15:14.147Z,98679.44
2022-09-24T10:17:41.635Z,98668.13
2022-09-24T10:20:17.035Z,98679.56
2022-09-24T10:23:00.088Z,98665.28
2022-09-24T10:25:29.834Z,98684.69
2022-09-24T10:28:20.029Z,98687.63
2022-09-24T10:31:03.318Z,98670.94
2022-09-24T10:33:57.345Z,98676.41
2022-09-24T10:36:26.631Z,98673.22
2022-09-24T10:39:08.228Z,98684.41
2022-09-24T10:41:35.903Z,98675.94
2022-09-24T10:44:11.523Z,98677.06
2022-09-24T10:46:58.727Z,98674.84
2022-09-24T10:50:02.127Z,98678.66
2022-09-24T10:52:52.012Z,98684.78
2022-09-24T10:55:41.474Z,98667.34
2022-09-24T10:58:53.154Z,98684.22
2022-09-24T11:01:53.738Z,98675.91
2022-09-24T11:04:39.786Z,98682.00
2022-09-24T11:07:18.186Z,98680.03
2022-09-24T11:09:56.660Z,98679.28
2022-09-24T11:12:47.554Z,98673.31
2022-09-24T11:15:32.396Z,98681.44
2022-09-24T11:18:26.555Z,98686.13
2022-09-24T11:21:26.099Z,98690.47
2022-09-24T11:24:03.630Z,98679.19
2022-09-24T11:26:57.547Z,98692.31
2022-09-24T11:29:34.725Z,98681.78
2022-09-24T11:32:24.704Z,98676.59
2022-09-24T11:35:06.286Z,98669.28
2022-09-24T11:37:50.511Z,98666.44
2022-09-24T11:40:36.505Z,98662.13
2022-09-24T11:43:15.647Z,98667.44
2022-09-24T11:45:51.311Z,98663.59
2022-09-24T11:48:40.410Z,98662.13
2022-09-24T11:51:26.334Z,98666.03
2022-09-24T11:54:24.911Z,98658.69
2022-09-24T11:57:01.904Z,98658.69
2022-09-24T11:59:42.945Z,98649.41
2022-09-24T12:02:47.005Z,98660.16
2022-09-24T12:05:37.777Z,98654.00
2022-09-24T12:08:13.689Z,98654.97
2022-09-24T12:10:49.930Z,98649.34
2022-09-24T12:13:41.144Z,98654.25
2022-09-24T12:16:16.879Z,98644.53
2022-09-24T12:18:58.759Z,98648.91
2022-09-24T12:21:33.915Z,98646.13
2022-09-24T12:24:08.461Z,98641.25
2022-09-24T12:26:38.061Z,98638.25
2022-09-24T12:29:58.482Z,98647.88
2022-09-24T12:32:55.868Z,98639.72
2022-09-24T12:35:26.759Z,98643.81
2022-09-24T12:38:12.171Z,98631.28
2022-09-24T12:41:09.534Z,98637.88
2022-09-24T12:43:59.891Z,98651.53
2022-09-24T12:46:38.347Z,98648.22
2022-09-24T12:49:10.953Z,98650.31
2022-09-24T12:51:39.351Z,98642.78
2022-09-24T12:54:15.676Z,98651.06
2022-09-24T12:56:42.163Z,98645.50
2022-09-24T12:59:24.800Z,98642.00
2022-09-24T13:01:51.291Z,98633.69
2022-09-24T13:04:17.826Z,98635.59
2022-09-24T13:06:48.092Z,98627.13
2022-09-24T13:09:38.170Z,98632.88
2022-09-24T13:12:14.450Z,98629.84
2022-09-24T13:14:49.388Z,98623.31
2022-09-24T13:17:16.994Z,98622.44
2022-09-24T13:19:47.059Z,98628.94
2022-09-24T13:22:23.143Z,98625.22
2022-09-24T13:24:52.411Z,98626.91
2022-09-24T13:27:37.769Z,98607.25
2022-09-24T13:30:26.246Z,98625.16
2022-09-24T13:33:23.421Z,98621.50
2022-09-24T13:36:02.624Z,98614.91
2022-09-24T13:38:34.312Z,98627.19
2022-09-24T13:41:12.600Z,98622.09
2022-09-24T13:43:45.225Z,98611.44
2022-09-24T13:46:16.849Z,98624.41
2022-09-24T13:48:53.587Z,98614.91
2022-09-24T13:51:26.441Z,98613.84
2022-09-24T13:54:02.058Z,98615.06
2022-09-24T13:56:28.763Z,98607.94
2022-09-24T13:59:06.169Z,98604.94
2022-09-24T14:01:39.169Z,98607.38
2022-09-24T14:04:25.969Z,98604.25
2022-09-24T14:06:58.210Z,98602.97
2022-09-24T14:09:34.614Z,98607.50
2022-09-24T14:12:15.883Z,98592.34
2022-09-24T14:14:49.904Z,98605.69
2022-09-24T14:17:16.292Z,98593.13
2022-09-24T14:19:42.708Z,98596.09
2022-09-24T14:22:23.431Z,98605.44
2022-09-24T14:25:07.907Z,98599.19
2022-09-24T14:27:41.919Z,98592.31
2022-09-24T14:30:18.565Z,98598.50
2022-09-24T14:32:45.149Z,98595.16
2022-09-24T14:35:27.763Z,98605.41
2022-09-24T14:38:02.006Z,98588.19
2022-09-24T14:40:28.837Z,98601.81
2022-09-24T14:42:59.862Z,98596.13
2022-09-24T14:45:31.153Z,98595.75
2022-09-24T14:48:05.240Z,98602.72
2022-09-24T14:50:40.518Z,98588.63
2022-09-24T14:53:27.056Z,98595.50
2022-09-24T14:55:53.839Z,98593.66
2022-09-24T14:58:29.184Z,98591.03
2022-09-24T15:00:58.963Z,98586.75
2022-09-24T15:03:48.156Z,98588.13
2022-09-24T15:06:27.492Z,98594.34
2022-09-24T15:09:15.791Z,98586.81
2022-09-24T15:11:43.748Z,98583.34
2022-09-24T15:14:24.992Z,98587.28
2022-09-24T15:16:52.775Z,98581.94
2022-09-24T15:19:21.250Z,98584.81
2022-09-24T15:21:49.684Z,98591.47
2022-09-24T15:24:17.441Z,98589.84
2022-09-24T15:26:46.867Z,98583.66
2022-09-24T15:29:20.969Z,98576.41
2022-09-24T15:31:47.528Z,98585.97
2022-09-24T15:34:17.814Z,98582.84
2022-09-24T15:36:47.910Z,98590.72
2022-09-24T15:39:16.055Z,98587.41
2022-09-24T15:41:42.407Z,98588.00
2022-09-24T15:44:23.016Z,98586.19
2022-09-24T15:46:53.641Z,98579.59
2022-09-24T15:49:22.199Z,98591.34
2022-09-24T15:52:05.751Z,98582.09
2022-09-24T15:54:32.350Z,98574.41
2022-09-24T15:57:00.650Z,98575.06
2022-09-24T15:59:27.982Z,98565.56
2022-09-24T16:01:57.780Z,98580.19
2022-09-24T16:04:24.185Z,98574.59
2022-09-24T16:06:50.965Z,98565.91
2022-09-24T16:09:17.324Z,98576.88
2022-09-24T16:11:44.021Z,98577.91
2022-09-24T16:14:10.992Z,98579.50
2022-09-24T16:16:40.436Z,98577.03
2022-09-24T16:19:09.628Z,98579.69
2022-09-24T16:21:36.187Z,98577.81
2022-09-24T16:24:03.206Z,98572.69
2022-09-24T16:26:29.735Z,98568.44
2022-09-24T16:28:56.775Z,98574.56
2022-09-24T16:31:23.796Z,98581.56
2022-09-24T16:33:50.268Z,98576.88
2022-09-24T16:36:16.827Z,98584.59
2022-09-24T16:38:43.287Z,98586.88
2022-09-24T16:41:10.763Z,98599.63
2022-09-24T16:43:37.492Z,98581.59
2022-09-24T16:46:06.701Z,98571.88
2022-09-24T16:48:33.605Z,98549.50
2022-09-24T16:51:07.594Z,98533.00
2022-09-24T16:53:34.804Z,98520.16
2022-09-24T16:56:15.093Z,98522.84
2022-09-24T16:58:42.660Z,98502.19
2022-09-24T17:01:11.521Z,98483.72
2022-09-24T17:03:38.562Z,98462.72
2022-09-24T17:06:05.593Z,98462.34
2022-09-24T17:09:12.530Z,98440.09
2022-09-24T17:11:42.449Z,98424.38
2022-09-24T17:14:12.183Z,98417.19
2022-09-24T17:16:39.712Z,98411.81
2022-09-24T17:19:07.888Z,98419.88
2022-09-24T17:21:35.959Z,98416.69
2022-09-24T17:24:02.667Z,98418.00
2022-09-24T17:26:29.030Z,98417.06
2022-09-24T17:28:55.429Z,98406.88
2022-09-24T17:31:24.201Z,98401.94
2022-09-24T17:33:57.953Z,98375.66
2022-09-24T17:36:26.265Z,98361.19
2022-09-24T17:38:52.834Z,98348.41
2022-09-24T17:41:19.564Z,98336.41
2022-09-24T17:43:45.966Z,98331.44
2022-09-24T17:46:15.238Z,98318.44
2022-09-24T17:48:45.662Z,98314.09
2022-09-24T17:51:15.460Z,98314.72
2022-09-24T17:53:41.921Z,98306.16
2022-09-24T17:56:11.408Z,98290.09
2022-09-24T17:58:39.600Z,98293.19
2022-09-24T18:01:11.981Z,98294.38
2022-09-24T18:03:39.392Z,98285.41
2022-09-24T18:06:08.397Z,98285.28
2022-09-24T18:08:39.107Z,98274.72
2022-09-24T18:11:14.953Z,98267.25
2022-09-24T18:13:41.697Z,98276.69
2022-09-24T18:16:10.994Z,98266.69
2022-09-24T18:18:37.748Z,98266.41
2022-09-24T18:21:06.793Z,98260.41
2022-09-24T18:23:35.056Z,98256.13
2022-09-24T18:26:10.829Z,98259.41
2022-09-24T18:28:41.523Z,98252.50
2022-09-24T18:31:10.186Z,98259.75
2022-09-24T18:33:38.922Z,98262.72
2022-09-24T18:36:08.329Z,98260.19
2022-09-24T18:38:35.475Z,98245.19
2022-09-24T18:41:08.421Z,98226.66
2022-09-24T18:43:35.250Z,98217.00
2022-09-24T18:46:10.780Z,98205.88
2022-09-24T18:48:38.194Z,98187.41
2022-09-24T18:51:05.404Z,98167.34
2022-09-24T18:53:32.178Z,98143.69
2022-09-24T18:56:03.202Z,98140.78
2022-09-24T18:58:29.560Z,98124.66
2022-09-24T19:01:03.701Z,98031.34
2022-09-24T19:03:30.879Z,98028.25
2022-09-24T19:06:02.740Z,98011.38
2022-09-24T19:08:32.084Z,98017.59
2022-09-24T19:11:09.248Z,98001.75
2022-09-24T19:13:39.954Z,97959.13
2022-09-24T19:16:10.854Z,97952.56
2022-09-24T19:18:38.272Z,97948.44
2022-09-24T19:21:06.546Z,97937.88
2022-09-24T19:23:40.674Z,97934.38
2022-09-24T19:26:08.462Z,97923.19
2022-09-24T19:28:36.014Z,97899.94
2022-09-24T19:31:03.859Z,97885.91
2022-09-24T19:33:31.279Z,97878.75
2022-09-24T19:36:01.691Z,97865.31
2022-09-24T19:38:30.413Z,97840.75
2022-09-24T19:41:01.754Z,97824.69
2022-09-24T19:43:29.763Z,97817.16
2022-09-24T19:46:00.803Z,97812.56
2022-09-24T19:48:29.077Z,97805.34
2022-09-24T19:51:00.890Z,97792.41
2022-09-24T19:53:27.868Z,97769.25
2022-09-24T19:55:54.269Z,97759.13
2022-09-24T19:58:20.634Z,97751.25
2022-09-24T20:00:47.059Z,97714.19
2022-09-24T20:03:13.658Z,97685.59
2022-09-24T20:05:43.201Z,97673.44
2022-09-24T20:08:14.689Z,97656.31
2022-09-24T20:10:41.842Z,97643.72
2022-09-24T20:13:10.616Z,97629.38
2022-09-24T20:15:38.272Z,97627.44
2022-09-24T20:18:06.529Z,97616.75
2022-09-24T20:20:33.236Z,97595.09
2022-09-24T20:22:59.934Z,97584.34
2022-09-24T20:25:45.070Z,97557.63
2022-09-24T20:28:15.359Z,97544.28
2022-09-24T20:30:44.892Z,97541.28
2022-09-24T20:33:12.849Z,97540.44
2022-09-24T20:35:41.034Z,97529.97
2022-09-24T20:38:08.309Z,97520.50
2022-09-24T20:40:36.480Z,97489.41
2022-09-24T20:43:03.792Z,97475.94
2022-09-24T20:45:31.417Z,97465.63
2022-09-24T20:47:57.834Z,97480.25
2022-09-24T20:50:24.207Z,97459.50
2022-09-24T20:52:51.112Z,97472.38
2022-09-24T20:55:17.471Z,97477.16
2022-09-24T20:57:43.824Z,97466.81
2022-09-24T21:00:13.327Z,97477.78
2022-09-24T21:02:41.567Z,97476.13
2022-09-24T21:05:10.370Z,97475.56
2022-09-24T21:07:42.570Z,97444.69
2022-09-24T21:10:11.554Z,97444.78
2022-09-24T21:12:39.371Z,97437.53
2022-09-24T21:15:07.606Z,97444.09
2022-09-24T21:17:34.488Z,97463.81
2022-09-24T21:20:01.232Z,97472.91
2022-09-24T21:22:27.992Z,97494.66
2022-09-24T21:24:54.490Z,97507.91
2022-09-24T21:27:20.880Z,97510.00
2022-09-24T21:29:48.212Z,97528.44
2022-09-24T21:32:16.662Z,97546.22
2022-09-24T21:34:44.027Z,97560.59
2022-09-24T21:37:14.858Z,97556.28
2022-09-24T21:39:43.045Z,97554.28
2022-09-24T21:42:09.734Z,97559.47
2022-09-24T21:44:36.264Z,97556.88
2022-09-24T21:47:03.321Z,97590.81
2022-09-24T21:49:30.664Z,97587.50
2022-09-24T21:51:57.627Z,97596.94
2022-09-24T21:54:24.050Z,97594.13
2022-09-24T21:56:54.222Z,97588.03
2022-09-24T21:59:39.004Z,97597.91
2022-09-24T22:02:05.435Z,97606.50
2022-09-24T22:04:33.263Z,97616.69
2022-09-24T22:07:00.230Z,97614.78
2022-09-24T22:09:26.837Z,97617.59
2022-09-24T22:11:55.862Z,97622.78
2022-09-24T22:14:23.154Z,97624.44
2022-09-24T22:16:49.728Z,97624.38
2022-09-24T22:19:16.337Z,97632.50
2022-09-24T22:21:42.987Z,97628.09
2022-09-24T22:24:09.935Z,97621.16
2022-09-24T22:26:36.579Z,97619.00
2022-09-24T22:29:06.329Z,97607.03
2022-09-24T22:31:33.236Z,97573.59
2022-09-24T22:34:18.821Z,97540.78
2022-09-24T22:36:45.189Z,97506.41
2022-09-24T22:39:11.542Z,97480.63
2022-09-24T22:41:39.950Z,97449.16
2022-09-24T22:44:07.184Z,97439.06
2022-09-24T22:46:36.078Z,97425.56
2022-09-24T22:49:04.288Z,97421.53
2022-09-24T22:51:31.330Z,97430.25
2022-09-24T22:53:59.674Z,97437.63
2022-09-24T22:56:27.182Z,97452.34
2022-09-24T22:59:03.073Z,97464.34
2022-09-24T23:01:33.385Z,97459.22
2022-09-24T23:04:01.457Z,97450.59
2022-09-24T23:06:28.183Z,97451.38
2022-09-24T23:08:55.401Z,97445.66
2022-09-24T23:11:31.554Z,97436.50
2022-09-24T23:14:04.587Z,97440.16
2022-09-24T23:16:34.344Z,97424.97
2022-09-24T23:19:02.596Z,97406.63
2022-09-24T23:21:31.413Z,97375.31
2022-09-24T23:24:05.050Z,97342.28
2022-09-24T23:26:31.514Z,97287.34
2022-09-24T23:28:59.374Z,97251.91
2022-09-24T23:31:29.501Z,97258.91
2022-09-24T23:33:57.440Z,97257.31
2022-09-24T23:36:25.372Z,97264.59
2022-09-24T23:38:52.913Z,97264.38
2022-09-24T23:41:19.812Z,97255.88
2022-09-24T23:43:46.196Z,97244.09
2022-09-24T23:46:13.608Z,97220.22
2022-09-24T23:48:40.269Z,97202.19
2022-09-24T23:51:07.407Z,97172.69
2022-09-24T23:53:34.381Z,97128.31
2022-09-24T23:56:01.708Z,97113.75
2022-09-24T23:58:28.332Z,97077.50
